Time;durP1;ratioP1;P1;durP2;ratioP2;P2;SDS_P1;SDS_P2;PMS_P1;PMS_P2;Temp;Humidity;BMP_temperature;BMP_pressure;BME280_temperature;BME280_humidity;BME280_pressure;Samples;Min_cycle;Max_cycle;Signal;HPM_P1;HPM_P2
2021/03/11 00:02:31;;;;;;;48.63;28.88;;;52.10;2227.20;;;;;;4808584;29;20112;-81
2021/03/11 00:09:41;;;;;;;48.10;31.33;;;52.00;2227.20;;;;;;4809320;29;20035;-82
2021/03/11 00:37:00;;;;;;;47.50;30.02;;;52.10;2227.20;;;;;;4807660;30;20033;-80
2021/03/11 00:40:33;;;;;;;55.78;32.13;;;52.10;2227.20;;;;;;4771944;30;20122;-80
2021/03/11 00:44:10;;;;;;;49.72;28.42;;;52.00;2227.20;;;;;;4771121;30;20048;-81
2021/03/11 00:54:03;;;;;;;68.97;33.13;;;52.10;2227.20;;;;;;4837741;29;20071;-81
2021/03/11 00:57:17;;;;;;;59.13;31.60;;;52.10;2227.20;;;;;;4801103;29;20043;-81
2021/03/11 01:00:50;;;;;;;56.78;31.95;;;52.00;2227.20;;;;;;4809357;29;20130;-81
2021/03/11 01:08:04;;;;;;;59.42;32.33;;;51.90;2227.20;;;;;;4808161;29;20046;-81
2021/03/11 01:15:12;;;;;;;52.55;31.45;;;51.80;2227.20;;;;;;4790897;30;20039;-80
2021/03/11 01:18:26;;;;;;;62.95;36.08;;;51.80;2227.20;;;;;;4832101;29;20043;-81
2021/03/11 01:25:10;;;;;;;56.28;32.00;;;51.80;2227.20;;;;;;4791115;30;20046;-80
2021/03/11 01:32:07;;;;;;;46.88;30.35;;;51.70;2227.20;;;;;;4790126;30;20057;-83
2021/03/11 01:35:22;;;;;;;53.17;30.27;;;51.70;2227.20;;;;;;4801100;30;20098;-80
2021/03/11 01:38:51;;;;;;;65.43;36.08;;;51.70;2227.20;;;;;;4789570;29;20050;-81
2021/03/11 02:52:51;;;;;;;47.90;27.33;;;51.50;2227.20;;;;;;4896540;29;20072;-81
2021/03/11 02:56:20;;;;;;;60.13;29.70;;;51.50;2227.20;;;;;;4801291;29;20042;-80
2021/03/11 03:06:38;;;;;;;69.20;31.88;;;51.50;2227.20;;;;;;4862932;29;20049;-81
2021/03/11 03:09:26;;;;;;;47.22;25.90;;;51.60;2227.20;;;;;;4852043;29;20034;-81
2021/03/11 03:15:25;;;;;;;38.40;24.08;;;51.40;2227.20;;;;;;4900370;29;20135;-80
2021/03/11 03:22:22;;;;;;;40.70;25.10;;;51.30;2227.20;;;;;;4930955;29;20055;-79
2021/03/11 03:25:47;;;;;;;50.13;27.42;;;51.30;2227.20;;;;;;4815489;29;20078;-79
2021/03/11 03:33:07;;;;;;;45.20;25.80;;;51.20;2227.20;;;;;;4897974;29;20059;-80
2021/03/11 03:36:00;;;;;;;43.20;27.30;;;51.20;2227.20;;;;;;4903178;29;20560;-80
2021/03/11 03:42:46;;;;;;;40.70;23.83;;;51.20;2227.20;;;;;;4855947;29;20075;-81
2021/03/11 03:45:41;;;;;;;40.33;24.33;;;51.20;2227.20;;;;;;4900610;29;20040;-81
2021/03/11 03:49:01;;;;;;;46.03;27.35;;;51.20;2227.20;;;;;;4933877;29;20052;-80
2021/03/11 03:52:26;;;;;;;46.92;28.13;;;51.30;2227.20;;;;;;4933887;29;20032;-80
2021/03/11 03:59:01;;;;;;;44.28;26.45;;;51.20;2227.20;;;;;;4865406;29;20059;-80
2021/03/11 04:02:10;;;;;;;53.83;27.83;;;51.20;2227.20;;;;;;4859374;29;20052;-80
2021/03/11 04:12:17;;;;;;;50.08;27.65;;;26.40;2201.60;;;;;;4838801;29;20076;-81
2021/03/11 04:15:28;;;;;;;48.83;25.60;;;26.50;2201.60;;;;;;4861414;29;20094;-80
2021/03/11 04:18:36;;;;;;;41.63;25.80;;;26.50;2201.60;;;;;;4835107;29;20047;-80
2021/03/11 04:24:47;;;;;;;39.78;24.48;;;51.20;2227.20;;;;;;4905040;29;20798;-80
2021/03/11 04:28:06;;;;;;;46.97;27.30;;;26.50;2201.60;;;;;;4927659;29;20019;-80
2021/03/11 04:31:20;;;;;;;35.58;23.00;;;26.50;2201.60;;;;;;4957230;29;20026;-80
2021/03/11 04:34:11;;;;;;;36.08;22.90;;;51.20;2227.20;;;;;;4948441;29;20072;-81
2021/03/11 04:37:28;;;;;;;39.38;24.55;;;51.20;2227.20;;;;;;4935923;29;20039;-79
2021/03/11 04:41:23;;;;;;;38.78;22.40;;;51.30;2227.20;;;;;;4960267;29;20042;-81
2021/03/11 04:48:27;;;;;;;50.03;29.73;;;51.30;2227.20;;;;;;4938771;29;20040;-80
2021/03/11 04:51:52;;;;;;;66.75;37.63;;;51.50;2227.20;;;;;;4935911;29;20032;-80
2021/03/11 04:55:20;;;;;;;62.35;38.92;;;51.30;2227.20;;;;;;4866353;29;20037;-80
2021/03/11 04:58:26;;;;;;;61.92;36.95;;;51.30;2227.20;;;;;;4919550;29;20028;-80
2021/03/11 05:05:18;;;;;;;57.08;31.60;;;51.50;2227.20;;;;;;4900406;29;20051;-80
2021/03/11 05:09:05;;;;;;;48.55;29.25;;;51.40;2227.20;;;;;;4826459;29;20106;-79
2021/03/11 05:12:58;;;;;;;48.55;27.13;;;51.50;2227.20;;;;;;4844436;29;20058;-79
2021/03/11 05:17:00;;;;;;;49.75;28.95;;;51.50;2227.20;;;;;;4761901;29;20031;-80
2021/03/11 05:23:10;;;;;;;55.08;34.72;;;51.50;2227.20;;;;;;4772463;30;20049;-80
2021/03/11 05:29:56;;;;;;;73.10;41.13;;;51.60;2227.20;;;;;;4789283;30;19929;-79
2021/03/11 05:33:11;;;;;;;87.82;54.83;;;51.60;2227.20;;;;;;4789495;29;20050;-80
2021/03/11 05:36:30;;;;;;;79.65;46.85;;;51.60;2227.20;;;;;;4846638;29;20043;-80
2021/03/11 05:46:55;;;;;;;342.67;158.52;;;51.40;2227.20;;;;;;4921965;29;20024;-80
2021/03/11 05:50:01;;;;;;;238.95;118.78;;;51.60;2227.20;;;;;;4886546;29;20063;-80
2021/03/11 05:53:24;;;;;;;195.38;102.10;;;51.70;2227.20;;;;;;4882123;29;20097;-80
2021/03/11 05:56:47;;;;;;;169.00;96.35;;;51.50;2227.20;;;;;;4884085;29;20017;-80
2021/03/11 06:00:01;;;;;;;135.65;75.90;;;51.30;2227.20;;;;;;4916384;29;20029;-80
2021/03/11 06:03:34;;;;;;;123.35;74.50;;;51.40;2227.20;;;;;;4920514;29;20017;-80
2021/03/11 06:06:57;;;;;;;121.82;72.22;;;51.40;2227.20;;;;;;4883855;29;20051;-80
2021/03/11 06:17:37;;;;;;;64.45;40.38;;;51.60;2227.20;;;;;;4897062;29;20119;-80
2021/03/11 06:21:25;;;;;;;68.95;45.13;;;51.80;2227.20;;;;;;4862127;29;20035;-80
2021/03/11 06:24:37;;;;;;;74.53;47.72;;;51.90;2227.20;;;;;;4835024;29;20027;-80
2021/03/11 06:28:03;;;;;;;93.60;60.42;;;52.00;2227.20;;;;;;4827556;29;20038;-80
2021/03/11 06:31:50;;;;;;;107.07;64.53;;;52.00;2227.20;;;;;;4826619;29;20043;-80
2021/03/11 06:38:57;;;;;;;159.63;89.60;;;52.00;2227.20;;;;;;4810129;29;20062;-80
2021/03/11 06:42:20;;;;;;;160.25;86.93;;;52.00;2227.20;;;;;;4818127;29;20041;-81
2021/03/11 06:55:46;;;;;;;73.38;45.22;;;76.90;2227.20;;;;;;4865247;29;20041;-80
2021/03/11 06:59:18;;;;;;;98.95;61.42;;;77.00;2227.20;;;;;;4858861;29;20030;-80
2021/03/11 07:02:27;;;;;;;106.60;63.28;;;77.10;2227.20;;;;;;4885433;29;20041;-80
2021/03/11 07:05:59;;;;;;;93.20;50.13;;;77.10;2227.20;;;;;;4889717;29;20029;-80
2021/03/11 07:12:37;;;;;;;75.47;41.13;;;77.30;2227.20;;;;;;4987824;28;20042;-80
2021/03/11 07:19:20;;;;;;;70.20;38.92;;;77.30;2227.20;;;;;;4996566;28;20077;-80
2021/03/11 07:23:10;;;;;;;47.42;31.20;;;77.30;2227.20;;;;;;4975853;28;20523;-80
2021/03/11 07:26:02;;;;;;;65.90;40.30;;;77.40;2227.20;;;;;;4968184;29;20051;-80
2021/03/11 07:29:41;;;;;;;88.93;61.90;;;77.50;2227.20;;;;;;4957139;29;20034;-80
2021/03/11 07:40:06;;;;;;;164.70;84.50;;;77.40;2227.20;;;;;;4938436;29;20153;-80
2021/03/11 07:43:35;;;;;;;153.02;79.70;;;77.60;2227.20;;;;;;4900748;29;20048;-80
2021/03/11 07:47:03;;;;;;;110.00;66.00;;;77.60;2227.20;;;;;;4897804;29;20036;-82
2021/03/11 07:50:29;;;;;;;90.68;60.92;;;77.60;2227.20;;;;;;4846982;29;20038;-81
2021/03/11 07:57:19;;;;;;;94.47;62.30;;;77.00;2227.20;;;;;;4785102;30;20036;-82
2021/03/11 08:00:28;;;;;;;102.00;74.65;;;77.00;2227.20;;;;;;4808277;29;20028;-82
2021/03/11 08:03:42;;;;;;;81.90;59.15;;;77.10;2227.20;;;;;;4790562;29;20062;-81
2021/03/11 08:06:29;;;;;;;75.90;56.80;;;77.20;2227.20;;;;;;4805985;29;20040;-80
2021/03/11 08:11:35;;;;;;;131.30;71.35;;;103.00;2227.20;;;;;;5107665;23;20030;-78
2021/03/11 08:14:24;;;;;;;122.18;71.88;;;77.70;2227.20;;;;;;4967298;28;20094;-79
2021/03/11 08:16:51;;;;;;;129.35;78.35;;;102.40;2227.20;;;;;;4951714;29;20007;-79
2021/03/11 08:19:35;;;;;;;116.70;82.95;;;102.40;2227.20;;;;;;4966691;29;20058;-79
2021/03/11 08:22:02;;;;;;;77.53;53.67;;;102.40;2227.20;;;;;;4952973;29;20031;-78
2021/03/11 08:25:24;;;;;;;49.17;36.97;;;102.50;2227.20;;;;;;4971871;29;20082;-80
2021/03/11 08:45:36;;;;;;;48.72;31.67;;;77.70;2227.20;;;;;;4882036;29;20562;-80
2021/03/11 09:02:30;;;;;;;37.25;24.85;;;77.70;2227.20;;;;;;5562215;23;20042;-80
2021/03/11 09:05:01;;;;;;;47.45;32.72;;;102.80;2227.20;;;;;;4990455;28;20018;-81
2021/03/11 09:07:36;;;;;;;45.92;31.70;;;103.00;2227.20;;;;;;4998275;28;20061;-80
2021/03/11 09:10:15;;;;;;;36.45;23.75;;;103.10;2227.20;;;;;;5014999;28;20038;-79
2021/03/11 09:12:44;;;;;;;51.38;31.65;;;103.20;2176.00;;;;;;5000993;28;20066;-79
2021/03/11 09:15:21;;;;;;;41.47;27.60;;;103.20;2227.20;;;;;;5000203;28;20050;-79
2021/03/11 09:20:54;;;;;;;42.77;28.43;;;128.00;2252.80;;;;;;5003374;28;20037;-80
2021/03/11 09:23:33;;;;;;;55.08;36.72;;;128.10;2252.80;;;;;;5000497;28;20026;-79
2021/03/11 09:25:59;;;;;;;61.40;42.47;;;128.30;2252.80;;;;;;4972564;28;20030;-79
2021/03/11 09:28:25;;;;;;;34.75;22.60;;;128.40;2252.80;;;;;;4974273;28;20031;-79
2021/03/11 09:30:52;;;;;;;55.08;36.60;;;128.30;2099.20;;;;;;4973404;28;20022;-79
2021/03/11 09:33:20;;;;;;;30.13;19.75;;;128.20;2227.20;;;;;;4973581;28;20027;-79
2021/03/11 09:35:47;;;;;;;31.73;20.35;;;128.30;2048.00;;;;;;4975614;28;20027;-78
2021/03/11 09:38:20;;;;;;;31.30;24.92;;;128.60;2048.00;;;;;;4977544;28;20033;-79
2021/03/11 09:40:48;;;;;;;;;;;128.30;2176.00;;;;;;4975907;28;20543;-79
2021/03/11 09:43:29;;;;;;;24.92;17.10;;;128.30;2176.00;;;;;;4974058;28;19918;-79
2021/03/11 09:46:02;;;;;;;30.20;20.75;;;128.30;2099.20;;;;;;4967912;28;20042;-80
2021/03/11 09:48:33;;;;;;;32.55;24.02;;;128.40;2048.00;;;;;;4972426;28;20042;-79
2021/03/11 09:51:12;;;;;;;24.98;16.70;;;128.40;2176.00;;;;;;4972845;28;20054;-79
2021/03/11 09:53:42;;;;;;;27.00;18.35;;;128.50;2150.40;;;;;;4969614;28;20039;-79
2021/03/11 09:56:25;;;;;;;22.98;16.35;;;128.50;2201.60;;;;;;4968053;28;20034;-79
2021/03/11 09:58:58;;;;;;;30.23;17.30;;;128.60;2201.60;;;;;;4971877;28;20138;-80
2021/03/11 10:01:35;;;;;;;27.67;18.00;;;128.70;2176.00;;;;;;4972216;28;20088;-78
2021/03/11 10:04:16;;;;;;;31.48;17.83;;;128.80;2201.60;;;;;;4986427;28;20552;-78
2021/03/11 10:06:48;;;;;;;29.58;20.10;;;128.90;2176.00;;;;;;4979996;28;20424;-78
2021/03/11 10:09:14;;;;;;;;;;;153.60;2252.80;;;;;;4982052;28;20027;-78
2021/03/11 10:11:42;;;;;;;30.83;21.02;;;153.80;2252.80;;;;;;4962999;28;20379;-78
2021/03/11 10:14:20;;;;;;;25.25;17.52;;;153.90;2176.00;;;;;;4963874;28;20037;-78
2021/03/11 10:16:50;;;;;;;23.10;15.93;;;154.10;2227.20;;;;;;4971604;28;20035;-79
2021/03/11 10:19:29;;;;;;;20.80;14.48;;;154.10;2176.00;;;;;;4991133;28;20031;-79
2021/03/11 10:22:19;;;;;;;26.10;16.48;;;154.00;2124.80;;;;;;4976076;28;20039;-80
2021/03/11 10:24:54;;;;;;;21.20;14.93;;;154.10;2227.20;;;;;;4992932;28;20099;-80
2021/03/11 10:27:27;;;;;;;13.85;10.23;;;154.00;2176.00;;;;;;4981553;28;20055;-76
2021/03/11 10:30:20;;;;;;;29.80;17.98;;;153.80;2048.00;;;;;;4957528;28;20027;-78
2021/03/11 10:33:01;;;;;;;50.63;31.45;;;154.00;2176.00;;;;;;4940613;29;20026;-77
2021/03/11 10:35:31;;;;;;;50.97;33.80;;;154.10;2124.80;;;;;;4939147;29;20054;-77
2021/03/11 10:38:13;;;;;;;21.88;15.30;;;154.20;2124.80;;;;;;4968252;28;20022;-77
2021/03/11 10:40:39;;;;;;;30.63;19.08;;;154.00;2099.20;;;;;;4958965;28;20041;-77
2021/03/11 10:43:19;;;;;;;15.77;9.25;;;154.10;2048.00;;;;;;4966153;28;20125;-78
2021/03/11 10:45:45;;;;;;;17.90;12.07;;;154.10;1945.60;;;;;;4960344;28;20105;-78
2021/03/11 10:48:12;;;;;;;18.70;13.43;;;154.10;1971.20;;;;;;4956945;28;20023;-78
2021/03/11 11:16:18;;;;;;;35.00;22.80;;;180.10;1868.80;;;;;;4920038;29;20060;-82
2021/03/11 11:19:52;;;;;;;86.95;51.20;;;205.00;1894.40;;;;;;4827083;29;20042;-84
2021/03/11 11:32:43;;;;;;;19.30;11.38;;;230.50;1817.60;;;;;;5036512;23;20057;-84
2021/03/11 12:02:56;;;;;;;19.80;16.08;;;256.70;1459.20;;;;;;4976632;28;20077;-88
2021/03/11 12:05:29;;;;;;;14.02;11.27;;;256.70;1484.80;;;;;;4975192;28;20416;-89
2021/03/11 12:10:40;;;;;;;10.52;8.50;;;281.80;1510.40;;;;;;4976709;28;20021;-87
2021/03/11 12:13:07;;;;;;;12.38;10.20;;;282.40;1484.80;;;;;;4958658;28;20391;-89
2021/03/11 12:15:33;;;;;;;15.85;10.98;;;307.20;1459.20;;;;;;4959027;28;20033;-89
2021/03/11 12:18:00;;;;;;;14.05;10.27;;;307.50;1510.40;;;;;;4958614;28;20027;-89
2021/03/11 12:20:26;;;;;;;19.35;13.77;;;307.30;1408.00;;;;;;4958470;28;20034;-87
2021/03/11 12:22:53;;;;;;;24.60;16.23;;;307.70;1536.00;;;;;;4957449;28;20042;-88
2021/03/11 12:25:19;;;;;;;20.75;15.23;;;308.10;1612.80;;;;;;4939340;29;20031;-89
2021/03/11 12:27:45;;;;;;;26.23;18.83;;;307.20;1664.00;;;;;;4938675;29;20081;-89
2021/03/11 12:30:12;;;;;;;19.67;14.27;;;256.70;1664.00;;;;;;4938814;29;20114;-83
2021/03/11 12:32:38;;;;;;;20.10;14.73;;;256.10;1664.00;;;;;;4938550;29;20053;-77
2021/03/11 12:35:05;;;;;;;23.35;17.40;;;231.30;1612.80;;;;;;4938555;29;20024;-78
2021/03/11 12:37:31;;;;;;;37.20;21.27;;;231.20;1689.60;;;;;;4956318;29;20038;-78
2021/03/11 12:39:58;;;;;;;24.00;15.55;;;230.90;1612.80;;;;;;4938676;29;20027;-78
2021/03/11 12:49:24;;;;;;;46.28;23.20;;;230.40;1843.20;;;;;;4933593;29;20070;-86
2021/03/11 12:53:20;;;;;;;22.98;16.38;;;205.70;1740.80;;;;;;4881246;29;20022;-86
2021/03/11 12:57:12;;;;;;;31.73;20.48;;;205.50;1817.60;;;;;;4837673;29;20045;-86
2021/03/11 13:00:36;;;;;;;27.95;17.63;;;205.40;1894.40;;;;;;4871452;29;20037;-86
2021/03/11 13:04:41;;;;;;;38.22;23.35;;;205.40;1766.40;;;;;;4822311;29;20046;-85
2021/03/11 13:14:45;;;;;;;49.25;27.60;;;205.20;1843.20;;;;;;4862365;29;20121;-84
2021/03/11 13:22:26;;;;;;;18.88;13.57;;;205.10;1792.00;;;;;;4795706;29;20078;-85
2021/03/11 13:25:33;;;;;;;100.25;53.08;;;204.90;1664.00;;;;;;4754275;30;20076;-84
2021/03/11 13:28:37;;;;;;;33.10;18.00;;;205.10;1868.80;;;;;;4838878;29;20129;-85
2021/03/11 13:31:36;;;;;;;90.60;48.08;;;205.10;1664.00;;;;;;4825593;29;20043;-85
2021/03/11 13:34:56;;;;;;;61.65;38.40;;;205.10;1843.20;;;;;;4825410;29;20038;-85
2021/03/11 13:37:43;;;;;;;34.47;21.15;;;205.50;1664.00;;;;;;4788178;29;20028;-80
2021/03/11 13:47:53;;;;;;;32.53;21.70;;;230.90;1536.00;;;;;;4973673;28;20053;-87
2021/03/11 13:51:34;;;;;;;23.38;16.50;;;256.30;1561.60;;;;;;4953335;29;20091;-87
2021/03/11 13:54:24;;;;;;;22.80;17.02;;;256.90;1612.80;;;;;;4954597;28;20050;-88
2021/03/11 13:56:50;;;;;;;21.38;15.52;;;281.80;1561.60;;;;;;4941597;29;20039;-87
2021/03/11 13:59:16;;;;;;;26.42;18.95;;;282.10;1459.20;;;;;;4956820;29;20039;-88
2021/03/11 14:01:43;;;;;;;27.42;20.85;;;282.20;1510.40;;;;;;4956846;29;20126;-90
2021/03/11 14:04:09;;;;;;;19.65;14.50;;;282.40;1536.00;;;;;;4956555;29;20030;-91
2021/03/11 14:06:35;;;;;;;19.35;13.23;;;282.50;1408.00;;;;;;4957570;29;20035;-88
2021/03/11 14:09:00;;;;;;;23.65;17.10;;;282.20;1408.00;;;;;;4957800;29;20050;-90
2021/03/11 14:11:26;;;;;;;49.92;28.85;;;282.40;1459.20;;;;;;4957094;29;20083;-91
2021/03/11 14:13:52;;;;;;;32.83;21.98;;;282.30;1459.20;;;;;;4957047;29;20086;-90
2021/03/11 14:16:19;;;;;;;24.35;15.23;;;282.30;1433.60;;;;;;4955534;28;20122;-92
2021/03/11 14:18:46;;;;;;;92.43;51.97;;;282.40;1484.80;;;;;;4961097;28;20027;-89
2021/03/11 14:21:13;;;;;;;56.33;33.00;;;281.90;1331.20;;;;;;4966798;28;20395;-88
2021/03/11 14:23:39;;;;;;;45.55;28.75;;;256.80;1331.20;;;;;;4979089;28;20038;-89
2021/03/11 14:26:05;;;;;;;43.05;28.08;;;281.70;1459.20;;;;;;4979050;28;20446;-90
2021/03/11 14:28:31;;;;;;;28.67;18.70;;;281.70;1484.80;;;;;;4980235;28;20029;-90
2021/03/11 14:30:57;;;;;;;23.90;18.08;;;281.70;1510.40;;;;;;4980431;28;20117;-92
2021/03/11 14:33:23;;;;;;;38.22;30.17;;;281.80;1536.00;;;;;;4980297;28;20068;-89
2021/03/11 14:35:49;;;;;;;35.17;25.65;;;281.70;1484.80;;;;;;4979996;28;20027;-91
2021/03/11 14:38:16;;;;;;;35.22;26.02;;;281.60;1510.40;;;;;;4980112;28;20026;-88
2021/03/11 14:40:43;;;;;;;25.50;19.45;;;256.70;1459.20;;;;;;4979556;28;20415;-88
2021/03/11 14:43:09;;;;;;;35.28;25.25;;;256.50;1561.60;;;;;;4979522;28;20068;-85
2021/03/11 14:45:36;;;;;;;43.88;31.95;;;256.00;1510.40;;;;;;4979324;28;20034;-87
2021/03/11 14:48:04;;;;;;;29.33;22.60;;;231.30;1510.40;;;;;;4979323;28;20076;-88
2021/03/11 14:50:30;;;;;;;32.42;22.42;;;231.20;1561.60;;;;;;4979437;28;20033;-88
2021/03/11 14:52:56;;;;;;;22.42;14.48;;;231.00;1561.60;;;;;;4979188;28;20031;-88
2021/03/11 14:55:24;;;;;;;23.08;14.48;;;230.80;1561.60;;;;;;4979255;28;20061;-86
2021/03/11 14:57:50;;;;;;;32.47;23.42;;;230.70;1664.00;;;;;;4979435;28;20033;-87
2021/03/11 15:00:17;;;;;;;43.17;31.85;;;230.60;1612.80;;;;;;4979044;28;20031;-89
2021/03/11 15:02:43;;;;;;;24.73;18.00;;;205.70;1689.60;;;;;;4979182;28;20058;-87
2021/03/11 15:05:10;;;;;;;23.35;16.15;;;205.70;1612.80;;;;;;4979214;28;20149;-88
2021/03/11 15:07:36;;;;;;;19.95;15.00;;;205.70;1664.00;;;;;;4979149;28;20035;-84
2021/03/11 15:10:06;;;;;;;19.83;14.88;;;205.70;1715.20;;;;;;4979420;28;20054;-90
2021/03/11 15:12:33;;;;;;;27.20;20.08;;;230.40;1740.80;;;;;;4979315;28;20037;-89
2021/03/11 15:14:59;;;;;;;29.75;21.35;;;205.70;1664.00;;;;;;4979083;28;20030;-90
2021/03/11 15:17:26;;;;;;;33.88;23.58;;;205.60;1740.80;;;;;;4979210;28;20037;-89
2021/03/11 15:19:52;;;;;;;30.65;21.52;;;205.50;1740.80;;;;;;4978967;28;20034;-86
2021/03/11 15:22:21;;;;;;;27.15;18.20;;;205.50;1740.80;;;;;;4977419;28;20369;-85
2021/03/11 15:28:24;;;;;;;29.40;20.27;;;205.30;1792.00;;;;;;4941398;29;20106;-87
2021/03/11 15:34:44;;;;;;;32.28;21.30;;;205.00;1843.20;;;;;;4955811;29;20439;-85
2021/03/11 15:38:27;;;;;;;45.00;29.02;;;205.00;1843.20;;;;;;4885638;29;20040;-85
2021/03/11 15:44:11;;;;;;;28.33;18.95;;;204.80;1920.00;;;;;;5005185;23;20141;-80
2021/03/11 15:46:37;;;;;;;71.53;42.67;;;180.10;1894.40;;;;;;4978114;28;20049;-78
2021/03/11 15:50:10;;;;;;;49.47;32.47;;;180.10;1894.40;;;;;;4977678;28;20453;-83
2021/03/11 15:52:40;;;;;;;54.83;38.17;;;180.10;1894.40;;;;;;4992205;28;20073;-83
2021/03/11 15:55:14;;;;;;;54.83;39.22;;;204.90;1894.40;;;;;;4995748;28;20084;-83
2021/03/11 16:12:07;;;;;;;51.08;32.45;;;179.90;2073.60;;;;;;4846405;29;20092;-84
2021/03/11 16:14:43;;;;;;;68.25;40.90;;;179.90;2099.20;;;;;;4844582;29;20128;-82
2021/03/11 16:17:29;;;;;;;55.90;39.53;;;179.90;2022.40;;;;;;4877953;29;20111;-80
2021/03/11 16:24:13;;;;;;;54.63;40.05;;;179.90;2048.00;;;;;;4918463;29;20051;-86
2021/03/11 16:30:55;;;;;;;46.72;33.47;;;179.80;2150.40;;;;;;4918811;29;20116;-85
2021/03/11 17:25:09;;;;;;;90.25;55.85;;;154.20;2227.20;;;;;;4986412;28;20053;-82
2021/03/11 17:28:11;;;;;;;151.13;87.70;;;154.10;2252.80;;;;;;4958037;28;20035;-84
2021/03/11 17:30:43;;;;;;;162.32;92.53;;;154.10;2252.80;;;;;;4967684;28;20026;-78
2021/03/11 17:33:09;;;;;;;140.57;82.30;;;153.90;2252.80;;;;;;4965793;28;20042;-79
2021/03/11 17:35:35;;;;;;;124.70;76.50;;;154.00;2252.80;;;;;;4968415;28;20034;-79
2021/03/11 17:38:51;;;;;;;114.00;70.22;;;153.70;2252.80;;;;;;4973914;28;20053;-83
2021/03/11 17:51:25;;;;;;;362.52;171.52;;;153.70;2252.80;;;;;;5043419;23;20110;-81
2021/03/11 19:02:50;;;;;;;160.48;109.30;;;128.40;2252.80;;;;;;5020497;23;20122;-79
2021/03/11 19:05:54;;;;;;;156.57;102.82;;;128.50;2252.80;;;;;;4998776;28;20034;-79
2021/03/11 19:09:16;;;;;;;143.98;93.28;;;128.50;2252.80;;;;;;5060649;23;20043;-80
2021/03/11 19:11:49;;;;;;;313.42;194.88;;;128.40;2252.80;;;;;;5036618;23;20039;-78
2021/03/11 19:38:50;;;;;;;232.93;138.00;;;128.40;2252.80;;;;;;5129550;23;20065;-81
2021/03/11 20:11:43;;;;;;;147.25;95.68;;;128.00;2252.80;;;;;;5243144;23;20053;-81
2021/03/11 20:17:10;;;;;;;171.27;105.20;;;103.30;2227.20;;;;;;5011840;23;20084;-81
2021/03/11 20:20:23;;;;;;;145.52;97.82;;;103.30;2227.20;;;;;;4974382;28;20037;-81
2021/03/11 20:23:51;;;;;;;119.95;77.38;;;103.30;2227.20;;;;;;4968206;28;20030;-81
2021/03/11 20:30:11;;;;;;;135.70;80.80;;;103.30;2227.20;;;;;;4968627;28;20038;-81
2021/03/11 20:33:09;;;;;;;136.73;85.25;;;128.10;2252.80;;;;;;4961362;28;20069;-81
2021/03/11 20:54:16;;;;;;;84.35;54.92;;;103.20;2227.20;;;;;;5225475;23;20055;-79
2021/03/11 20:56:43;;;;;;;81.72;53.20;;;103.30;2227.20;;;;;;4989850;28;20058;-78
2021/03/11 20:59:09;;;;;;;77.82;49.83;;;128.20;2252.80;;;;;;4969958;28;20049;-78
2021/03/11 21:01:35;;;;;;;58.95;41.38;;;103.20;2227.20;;;;;;4970664;28;20022;-78
2021/03/11 21:04:01;;;;;;;64.28;41.42;;;103.30;2227.20;;;;;;4968774;28;20027;-79
2021/03/11 21:06:27;;;;;;;66.95;46.17;;;103.30;2227.20;;;;;;4966005;28;20045;-78
2021/03/11 21:08:57;;;;;;;121.90;73.63;;;103.30;2227.20;;;;;;4973991;28;20094;-80
2021/03/11 21:11:27;;;;;;;131.98;77.50;;;103.20;2227.20;;;;;;4975460;28;20023;-79
2021/03/11 21:13:54;;;;;;;145.70;86.85;;;103.20;2227.20;;;;;;4991044;28;20038;-80
2021/03/11 21:16:20;;;;;;;132.95;79.85;;;103.10;2227.20;;;;;;4972201;28;20034;-80
2021/03/11 21:18:48;;;;;;;118.95;77.18;;;103.20;2227.20;;;;;;4974831;28;20022;-80
2021/03/11 21:21:14;;;;;;;104.80;70.05;;;102.90;2227.20;;;;;;4977586;28;20126;-79
2021/03/11 21:24:06;;;;;;;119.93;76.05;;;103.00;2227.20;;;;;;4957659;28;20059;-80
2021/03/11 21:26:38;;;;;;;115.28;69.63;;;103.00;2227.20;;;;;;4957510;29;20039;-80
2021/03/11 21:29:31;;;;;;;96.70;61.07;;;102.90;2227.20;;;;;;4957757;29;20039;-79
2021/03/11 21:32:40;;;;;;;93.90;58.80;;;102.90;2227.20;;;;;;4959215;29;20021;-80
2021/03/11 21:36:26;;;;;;;64.05;42.63;;;102.80;2227.20;;;;;;4955736;29;20038;-80
2021/03/11 21:38:54;;;;;;;91.20;48.80;;;102.80;2227.20;;;;;;4973951;29;20035;-80
2021/03/11 21:41:24;;;;;;;73.38;43.28;;;102.80;2227.20;;;;;;4973883;29;20050;-80
2021/03/11 22:03:17;;;;;;;96.25;54.60;;;102.90;2227.20;;;;;;4954755;29;20172;-80
2021/03/11 22:06:49;;;;;;;104.35;61.75;;;102.90;2227.20;;;;;;4954162;29;20032;-81
2021/03/11 22:09:48;;;;;;;129.48;73.07;;;103.00;2227.20;;;;;;5092711;23;20017;-81
2021/03/11 22:13:29;;;;;;;125.60;75.35;;;102.90;2227.20;;;;;;4945061;29;20099;-82
2021/03/11 22:16:28;;;;;;;116.30;66.88;;;102.90;2227.20;;;;;;4950444;29;20036;-80
2021/03/11 22:19:25;;;;;;;96.28;56.75;;;102.90;2227.20;;;;;;4938912;29;20031;-80
2021/03/11 22:21:51;;;;;;;82.38;49.17;;;102.80;2227.20;;;;;;4937841;29;20063;-80
2021/03/11 22:24:17;;;;;;;90.53;54.67;;;103.30;2227.20;;;;;;4938120;29;20028;-80
2021/03/11 22:27:03;;;;;;;90.40;53.95;;;102.70;2227.20;;;;;;4930013;29;20095;-81
2021/03/11 22:29:29;;;;;;;109.05;62.42;;;102.60;2227.20;;;;;;4934436;29;20103;-79
2021/03/11 22:32:45;;;;;;;108.20;63.15;;;102.70;2227.20;;;;;;5152154;23;20047;-80
2021/03/11 22:39:46;;;;;;;91.15;55.80;;;102.80;2227.20;;;;;;4920188;29;20048;-81
2021/03/11 22:42:53;;;;;;;140.65;80.85;;;102.90;2227.20;;;;;;4901142;29;20069;-81
2021/03/11 22:46:02;;;;;;;121.93;74.22;;;102.60;2227.20;;;;;;4863819;29;20034;-81
2021/03/11 22:49:35;;;;;;;120.30;70.95;;;102.70;2227.20;;;;;;4860509;29;20022;-81
2021/03/11 22:52:55;;;;;;;86.93;54.75;;;102.80;2227.20;;;;;;4834489;29;20046;-81
2021/03/11 22:56:18;;;;;;;43.42;28.50;;;102.70;2227.20;;;;;;4827138;29;20064;-81
2021/03/11 23:23:39;;;;;;;166.20;102.45;;;77.10;2227.20;;;;;;4860919;29;20079;-80
2021/03/11 23:41:11;;;;;;;111.53;68.28;;;77.50;2227.20;;;;;;4874426;29;20052;-81
2021/03/11 23:48:07;;;;;;;188.85;110.95;;;77.50;2227.20;;;;;;4880873;29;20044;-81
2021/03/11 23:51:50;;;;;;;159.98;89.85;;;77.60;2227.20;;;;;;4880900;29;20048;-81
2021/03/11 23:55:01;;;;;;;135.93;83.03;;;77.70;2227.20;;;;;;4881598;29;20061;-81
2021/03/11 23:58:34;;;;;;;145.30;82.00;;;102.40;2227.20;;;;;;4862094;29;20093;-81
